Terminal Aerodrome Forecast
Issued by NWS

Home | Current Version | Previous Version | Text Only | Print | Product List | Glossary On
Versions: 1 2 3 4 5 6 7 8 9 10 11 12 13 14 15 16 17 18 19 20 21 22 23 24 25 26 27 28 29 30 31 32 33 34 35 36 37 38 39 40 41 42 43 44 45 46 47 48 49 50
000
FTUS41 KALY 180838 AAA
TAFPSF
TAF AMD
KPSF 180838Z 1809/1906 VRB03KT P6SM VCSH BKN015
     FM181000 VRB03KT 4SM BR VCSH BKN030 BKN100
     FM181500 VRB03KT P6SM VCSH BKN015 OVC030
     FM190000 VRB05KT 4SM BR VCSH SCT020 BKN070=

USA.gov is the U.S. government's official web portal to all federal, state and local government web resources and services.